Carmo do Rio Verde, Brazil
Current Conditions -  °F | °C
As of 3:00 PM on Thursday 30 Oct 2014 (Local Time) from SBAN Reporting Station
Thunderstorm Thunderstorm  
Wind Chill: 79°   Ceiling: 2500
Heat Index: 80°   Visibility: 6mi
Dew Point: 63°   Wind: 12mph
Humidity: 57%   Direction: 300°WNW
Pressure: 30"   Gusts: NA
Location:  15.35°S, 49.71°W
Report Text: SBAN 301700Z 30010KT 9999 VCSH VCTS BKN025 FEW030CB 26/17 Q1016
Loading
Personal Weather Stations






























Interactive Weather Map New forecast layout! Learn more

10-Day Weather Forecast

Advertisements
Track Severe Weather on mobile